Time;durP1;ratioP1;P1;durP2;ratioP2;P2;SDS_P1;SDS_P2;PMS_P1;PMS_P2;Temp;Humidity;BMP_temperature;BMP_pressure;BME280_temperature;BME280_humidity;BME280_pressure;Samples;Min_cycle;Max_cycle;Signal;HPM_P1;HPM_P2
2023/10/26 00:00:27;;;;;;;42.30;27.10;;;;;;;9.58;100.00;98408.36;129949;1260;114705;-60
2023/10/26 00:03:49;;;;;;;41.00;26.50;;;;;;;9.62;100.00;98408.99;129755;1262;114712;-59
2023/10/26 00:06:52;;;;;;;35.60;24.30;;;;;;;9.63;100.00;98406.04;129825;1270;114872;-60
2023/10/26 00:09:54;;;;;;;34.40;24.40;;;;;;;9.64;100.00;98402.37;129807;1278;114735;-59
2023/10/26 00:12:57;;;;;;;34.90;24.30;;;;;;;9.67;100.00;98399.63;129616;1261;114693;-59
2023/10/26 00:15:59;;;;;;;40.30;25.30;;;;;;;9.69;100.00;98398.08;129832;1278;115233;-59
2023/10/26 00:19:02;;;;;;;35.60;25.20;;;;;;;9.72;100.00;98397.65;129868;1265;114780;-59
2023/10/26 00:22:05;;;;;;;38.80;26.00;;;;;;;9.74;100.00;98397.15;129829;1263;115262;-58
2023/10/26 00:25:08;;;;;;;37.20;24.90;;;;;;;9.77;100.00;98399.45;129964;1259;115398;-59
2023/10/26 00:28:10;;;;;;;35.10;24.20;;;;;;;9.78;100.00;98389.73;129803;1263;115116;-59
2023/10/26 00:31:12;;;;;;;37.40;25.00;;;;;;;9.79;100.00;98385.23;129588;1265;127832;-62
2023/10/26 00:34:14;;;;;;;36.90;26.30;;;;;;;9.80;100.00;98379.80;129739;1260;115262;-61
2023/10/26 00:37:16;;;;;;;38.70;24.60;;;;;;;9.83;100.00;98374.24;129890;1259;116411;-59
2023/10/26 00:40:20;;;;;;;34.90;25.40;;;;;;;9.85;100.00;98370.30;129876;1263;114798;-59
2023/10/26 00:43:24;;;;;;;37.70;26.10;;;;;;;9.87;100.00;98375.29;129800;1270;115259;-59
2023/10/26 00:46:26;;;;;;;38.10;25.40;;;;;;;9.91;100.00;98377.54;129571;1265;114802;-59
2023/10/26 00:49:28;;;;;;;36.30;26.50;;;;;;;9.91;100.00;98374.10;129721;1269;115170;-60
2023/10/26 00:52:30;;;;;;;36.40;24.50;;;;;;;9.93;100.00;98370.09;129620;1261;114820;-59
2023/10/26 00:55:32;;;;;;;43.50;27.30;;;;;;;9.94;100.00;98366.05;129530;1278;115727;-58
2023/10/26 00:58:35;;;;;;;34.90;25.40;;;;;;;9.94;100.00;98369.77;129899;1271;114786;-59
2023/10/26 01:01:37;;;;;;;41.00;28.10;;;;;;;9.96;100.00;98360.90;129596;1262;114810;-59
2023/10/26 01:04:40;;;;;;;42.20;27.50;;;;;;;9.97;100.00;98359.56;129624;1272;114832;-60
2023/10/26 01:07:42;;;;;;;41.30;27.10;;;;;;;9.96;100.00;98358.25;129692;1260;114704;-59
2023/10/26 01:10:46;;;;;;;37.70;26.00;;;;;;;9.93;100.00;98358.95;129764;1268;114789;-58
2023/10/26 01:13:49;;;;;;;42.40;26.40;;;;;;;9.91;100.00;98359.35;129745;1271;114810;-60
2023/10/26 01:16:51;;;;;;;40.50;26.30;;;;;;;9.89;100.00;98360.89;129871;1269;115126;-60
2023/10/26 01:19:54;;;;;;;42.60;28.00;;;;;;;9.86;100.00;98360.89;129768;1260;115312;-59
2023/10/26 01:22:56;;;;;;;42.50;28.60;;;;;;;9.85;100.00;98353.52;129665;1271;114803;-59
2023/10/26 01:25:59;;;;;;;43.00;29.20;;;;;;;9.84;100.00;98348.57;129784;1270;114967;-60
2023/10/26 01:29:02;;;;;;;42.00;29.70;;;;;;;9.85;100.00;98347.30;129771;1278;114707;-60
2023/10/26 01:32:05;;;;;;;42.00;29.50;;;;;;;9.84;100.00;98336.66;129780;1270;115274;-59
2023/10/26 01:35:08;;;;;;;45.00;28.90;;;;;;;9.84;100.00;98340.23;129821;1260;114706;-59
2023/10/26 01:38:10;;;;;;;38.10;28.30;;;;;;;9.86;100.00;98346.17;129828;1270;114702;-58
2023/10/26 01:41:12;;;;;;;41.30;28.70;;;;;;;9.88;100.00;98340.80;129948;1278;115484;-58
2023/10/26 01:44:15;;;;;;;45.30;30.20;;;;;;;9.90;100.00;98324.42;129619;1263;114908;-58
2023/10/26 01:47:17;;;;;;;43.30;28.30;;;;;;;9.93;100.00;98304.09;129720;1270;114759;-59
2023/10/26 01:50:20;;;;;;;51.90;30.00;;;;;;;9.95;100.00;98300.55;129873;1260;114705;-58
2023/10/26 01:53:23;;;;;;;39.60;27.40;;;;;;;9.94;100.00;98295.24;129875;1260;114805;-59
2023/10/26 01:56:31;;;;;;;39.00;30.10;;;;;;;9.91;100.00;98282.44;131136;1254;114751;31
2023/10/26 01:59:33;;;;;;;41.40;27.40;;;;;;;9.90;100.00;98282.20;130390;1259;114726;-69
2023/10/26 02:02:35;;;;;;;40.80;29.40;;;;;;;9.87;100.00;98282.59;130211;1271;115210;-70
2023/10/26 02:05:37;;;;;;;42.90;29.20;;;;;;;9.85;100.00;98278.13;130153;1260;114735;-71
2023/10/26 02:08:39;;;;;;;40.00;29.10;;;;;;;9.85;100.00;98277.42;129804;1276;127649;-70
2023/10/26 02:11:41;;;;;;;43.60;31.00;;;;;;;9.86;100.00;98281.80;130089;1275;115173;-71
2023/10/26 02:14:43;;;;;;;41.00;29.00;;;;;;;9.87;100.00;98286.88;130142;1259;115160;-70
2023/10/26 02:17:45;;;;;;;42.80;29.20;;;;;;;9.89;100.00;98280.33;130152;1257;114768;-70
2023/10/26 02:20:47;;;;;;;43.70;29.40;;;;;;;9.87;100.00;98270.98;130125;1259;115142;-70
2023/10/26 02:23:49;;;;;;;44.50;30.00;;;;;;;9.87;100.00;98270.79;130212;1256;114695;-69
2023/10/26 02:26:51;;;;;;;40.80;29.60;;;;;;;9.89;100.00;98266.23;130193;1259;114814;-70
2023/10/26 02:29:53;;;;;;;47.30;32.50;;;;;;;9.87;100.00;98260.81;130126;1258;114780;-69
2023/10/26 02:32:55;;;;;;;43.90;31.10;;;;;;;9.88;100.00;98258.46;130305;1260;114677;-69
2023/10/26 02:35:57;;;;;;;44.20;31.40;;;;;;;9.87;100.00;98250.30;130147;1259;114717;-70
2023/10/26 02:38:59;;;;;;;40.50;27.40;;;;;;;9.86;100.00;98241.10;130045;1259;115471;-73
2023/10/26 02:42:01;;;;;;;40.90;28.70;;;;;;;9.85;100.00;98237.63;130103;1270;114748;-71
2023/10/26 02:45:04;;;;;;;45.00;31.00;;;;;;;9.85;100.00;98236.21;130296;1259;115152;-70
2023/10/26 02:48:06;;;;;;;45.10;30.50;;;;;;;9.85;100.00;98233.15;130282;1259;114948;-70
2023/10/26 02:51:08;;;;;;;49.00;30.00;;;;;;;9.87;100.00;98234.45;130093;1259;114744;-72
2023/10/26 02:54:10;;;;;;;43.50;30.90;;;;;;;9.87;100.00;98229.25;130136;1260;115217;-70
2023/10/26 02:57:15;;;;;;;43.10;31.50;;;;;;;9.86;100.00;98221.11;129874;1263;115248;-72
2023/10/26 03:00:17;;;;;;;44.50;31.30;;;;;;;9.86;100.00;98215.42;130057;1257;115249;-71
2023/10/26 03:03:19;;;;;;;41.80;32.20;;;;;;;9.85;100.00;98201.23;130145;1259;115237;-70
2023/10/26 03:06:21;;;;;;;50.90;32.20;;;;;;;9.86;100.00;98196.70;130241;1256;114712;-71
2023/10/26 03:09:23;;;;;;;48.00;31.20;;;;;;;9.87;100.00;98189.52;130227;1259;114723;-69
2023/10/26 03:12:25;;;;;;;45.10;31.40;;;;;;;9.86;100.00;98189.79;130167;1259;114725;-73
2023/10/26 03:15:27;;;;;;;44.10;31.30;;;;;;;9.87;100.00;98198.09;130350;1258;114786;-69
2023/10/26 03:18:29;;;;;;;41.90;29.70;;;;;;;9.89;100.00;98199.58;130246;1257;114910;-70
2023/10/26 03:21:31;;;;;;;46.30;30.50;;;;;;;9.88;100.00;98209.03;130196;1259;114725;-76
2023/10/26 03:24:33;;;;;;;43.80;31.00;;;;;;;9.89;100.00;98212.37;130178;1259;114988;-69
2023/10/26 03:27:35;;;;;;;43.30;29.80;;;;;;;9.90;100.00;98205.36;127447;1264;3270368;-69
2023/10/26 03:30:37;;;;;;;42.30;28.90;;;;;;;9.88;100.00;98199.94;129910;1260;114975;-71
2023/10/26 03:33:39;;;;;;;38.80;28.40;;;;;;;9.88;100.00;98187.98;130223;1259;115234;-71
2023/10/26 03:36:41;;;;;;;46.70;30.60;;;;;;;9.90;100.00;98183.22;130169;1257;114779;-72
2023/10/26 03:39:43;;;;;;;41.00;29.60;;;;;;;9.91;100.00;98179.61;129788;1269;127854;-70
2023/10/26 03:42:45;;;;;;;46.20;31.70;;;;;;;9.91;100.00;98183.73;130131;1259;115131;-74
2023/10/26 03:45:47;;;;;;;43.20;31.80;;;;;;;9.91;100.00;98180.64;130230;1257;114770;-69
2023/10/26 03:48:50;;;;;;;45.00;32.10;;;;;;;9.91;100.00;98177.83;130189;1259;114789;-72
2023/10/26 03:51:52;;;;;;;46.70;30.80;;;;;;;9.92;100.00;98178.67;130206;1257;114728;-72
2023/10/26 03:54:54;;;;;;;39.90;28.80;;;;;;;9.90;100.00;98176.45;130123;1259;114706;-73
2023/10/26 03:57:56;;;;;;;44.10;31.80;;;;;;;9.89;100.00;98167.09;130142;1259;114654;-68
2023/10/26 04:00:58;;;;;;;46.40;31.30;;;;;;;9.89;100.00;98162.48;130082;1257;128947;-68
2023/10/26 04:04:02;;;;;;;53.30;33.00;;;;;;;9.88;100.00;98155.37;130099;1259;114725;-68
2023/10/26 04:07:05;;;;;;;44.90;30.60;;;;;;;9.90;100.00;98150.80;130132;1257;114723;-68
2023/10/26 04:10:08;;;;;;;44.90;29.90;;;;;;;9.88;100.00;98146.09;130134;1259;114737;-68
2023/10/26 04:13:10;;;;;;;42.00;28.50;;;;;;;9.87;100.00;98134.27;130101;1261;114885;-68
2023/10/26 04:16:12;;;;;;;44.20;29.40;;;;;;;9.84;100.00;98127.41;130244;1256;115373;-69
2023/10/26 04:19:14;;;;;;;41.00;28.10;;;;;;;9.82;100.00;98124.14;130087;1259;128748;-69
2023/10/26 04:22:16;;;;;;;40.70;28.60;;;;;;;9.81;100.00;98121.77;130049;1257;114785;-69
2023/10/26 04:25:18;;;;;;;39.90;28.10;;;;;;;9.79;100.00;98116.68;130157;1259;114723;-69
2023/10/26 04:28:20;;;;;;;43.70;29.00;;;;;;;9.78;100.00;98108.77;130189;1278;114795;-69
2023/10/26 04:31:22;;;;;;;40.90;28.50;;;;;;;9.79;100.00;98111.42;130077;1259;115357;-68
2023/10/26 04:34:25;;;;;;;39.90;27.80;;;;;;;9.78;100.00;98110.96;130192;1272;114846;-69
2023/10/26 04:37:28;;;;;;;39.90;28.10;;;;;;;9.76;100.00;98105.58;130042;1258;115132;-70
2023/10/26 04:40:29;;;;;;;38.50;27.80;;;;;;;9.75;100.00;98100.15;130166;1259;114821;-69
2023/10/26 04:43:31;;;;;;;36.80;25.90;;;;;;;9.74;100.00;98095.93;130244;1259;114684;-70
2023/10/26 04:46:33;;;;;;;40.10;28.00;;;;;;;9.72;100.00;98091.77;130155;1257;115256;-72
2023/10/26 04:49:35;;;;;;;34.40;26.70;;;;;;;9.70;100.00;98090.48;130096;1256;114784;-69
2023/10/26 04:52:37;;;;;;;37.20;27.00;;;;;;;9.68;100.00;98085.48;130134;1259;114680;-69
2023/10/26 04:55:39;;;;;;;37.80;26.90;;;;;;;9.68;100.00;98083.73;130076;1259;114726;-69
2023/10/26 04:58:43;;;;;;;36.10;27.70;;;;;;;9.67;100.00;98080.95;130103;1278;114863;-69
2023/10/26 05:01:45;;;;;;;37.40;26.10;;;;;;;9.67;100.00;98077.45;130164;1259;114754;-70
2023/10/26 05:04:47;;;;;;;35.10;25.20;;;;;;;9.64;100.00;98071.94;130147;1259;114796;-69
2023/10/26 05:07:49;;;;;;;37.70;25.70;;;;;;;9.63;100.00;98068.87;130125;1257;115374;-72
2023/10/26 05:10:51;;;;;;;35.50;24.60;;;;;;;9.62;100.00;98073.00;130068;1256;114731;-69
2023/10/26 05:13:53;;;;;;;36.80;25.70;;;;;;;9.61;100.00;98072.36;130259;1256;114716;-71
2023/10/26 05:16:55;;;;;;;34.10;23.70;;;;;;;9.62;100.00;98070.52;130065;1278;114761;-70
2023/10/26 05:19:57;;;;;;;36.70;25.50;;;;;;;9.62;100.00;98068.00;130183;1259;116245;-72
2023/10/26 05:23:00;;;;;;;37.20;24.80;;;;;;;9.62;100.00;98069.45;130319;1256;114779;-72
2023/10/26 05:26:02;;;;;;;36.00;23.80;;;;;;;9.62;100.00;98065.88;130178;1259;129704;-71
2023/10/26 05:29:04;;;;;;;34.10;24.90;;;;;;;9.62;100.00;98067.34;130127;1258;114738;-72
2023/10/26 05:32:06;;;;;;;37.30;26.00;;;;;;;9.62;100.00;98062.34;130175;1256;114731;-71
2023/10/26 05:35:08;;;;;;;36.00;24.80;;;;;;;9.63;100.00;98067.24;129860;1259;114914;-71
2023/10/26 05:38:10;;;;;;;35.80;24.40;;;;;;;9.65;100.00;98066.02;129971;1261;114840;-70
2023/10/26 05:41:12;;;;;;;33.80;23.80;;;;;;;9.68;100.00;98061.11;130128;1259;114709;-70
2023/10/26 05:44:14;;;;;;;31.00;22.30;;;;;;;9.71;100.00;98061.42;130091;1259;114789;-70
2023/10/26 05:47:16;;;;;;;28.90;21.60;;;;;;;9.75;100.00;98063.43;130105;1256;114738;-70
2023/10/26 05:50:20;;;;;;;28.20;20.60;;;;;;;9.79;100.00;98070.73;130144;1256;114817;-70
2023/10/26 05:53:21;;;;;;;28.60;20.40;;;;;;;9.84;100.00;98068.70;130070;1258;115285;-70
2023/10/26 05:56:24;;;;;;;27.70;20.40;;;;;;;9.90;100.00;98073.77;130064;1259;114750;-73
2023/10/26 05:59:26;;;;;;;26.00;18.40;;;;;;;9.96;100.00;98071.69;130028;1270;115389;-69
2023/10/26 06:02:29;;;;;;;25.40;19.10;;;;;;;10.02;100.00;98070.64;130140;1275;114917;-69
2023/10/26 06:05:31;;;;;;;23.70;16.80;;;;;;;10.08;100.00;98073.32;130190;1259;114741;-70
2023/10/26 06:08:33;;;;;;;25.60;16.80;;;;;;;10.12;100.00;98077.59;130043;1259;115424;-70
2023/10/26 06:11:35;;;;;;;23.00;17.10;;;;;;;10.18;100.00;98079.45;130144;1256;114726;-70
2023/10/26 06:14:37;;;;;;;25.40;16.90;;;;;;;10.24;100.00;98080.05;130176;1271;115183;-69
2023/10/26 06:17:39;;;;;;;22.40;15.80;;;;;;;10.29;100.00;98084.76;130075;1256;114907;-69
2023/10/26 06:20:41;;;;;;;21.80;15.30;;;;;;;10.34;100.00;98089.16;130266;1257;114769;-68
2023/10/26 06:23:44;;;;;;;19.90;15.30;;;;;;;10.40;100.00;98093.52;130178;1260;114728;-68
2023/10/26 06:26:46;;;;;;;24.70;15.90;;;;;;;10.45;100.00;98095.11;130071;1278;115193;-68
2023/10/26 06:29:51;;;;;;;21.20;16.70;;;;;;;10.51;100.00;98099.77;130235;1259;115330;-68
2023/10/26 06:32:53;;;;;;;23.60;17.20;;;;;;;10.57;100.00;98097.27;130238;1259;115181;-72
2023/10/26 06:35:55;;;;;;;25.40;18.40;;;;;;;10.62;100.00;98096.66;130190;1278;114748;-69
2023/10/26 06:38:59;;;;;;;21.90;16.40;;;;;;;10.67;100.00;98102.86;130342;1257;114753;-69
2023/10/26 06:42:01;;;;;;;24.40;16.30;;;;;;;10.73;100.00;98099.30;130096;1257;115150;-70
2023/10/26 06:45:04;;;;;;;24.30;16.00;;;;;;;10.81;100.00;98102.18;130073;1256;114801;-70
2023/10/26 06:48:06;;;;;;;20.60;15.00;;;;;;;10.90;100.00;98102.13;130122;1256;114768;-71
2023/10/26 06:51:08;;;;;;;16.30;12.50;;;;;;;11.00;100.00;98102.17;130244;1260;114686;-70
2023/10/26 06:54:10;;;;;;;14.90;11.90;;;;;;;11.11;100.00;98103.41;129942;1256;115345;-69
2023/10/26 06:57:12;;;;;;;15.90;11.30;;;;;;;11.21;100.00;98106.41;129981;1260;114803;-70
2023/10/26 07:00:14;;;;;;;13.20;10.90;;;;;;;11.32;100.00;98105.55;130146;1259;114714;-70
2023/10/26 07:03:16;;;;;;;13.50;10.70;;;;;;;11.40;100.00;98104.42;130023;1257;116358;-72
2023/10/26 07:06:18;;;;;;;14.30;10.40;;;;;;;11.47;100.00;98105.42;130130;1259;114719;-70
2023/10/26 07:09:20;;;;;;;14.20;10.00;;;;;;;11.53;100.00;98108.77;130217;1259;114752;-71
2023/10/26 07:12:22;;;;;;;12.50;8.80;;;;;;;11.60;100.00;98106.98;130158;1257;129698;-71
2023/10/26 07:15:24;;;;;;;15.00;8.90;;;;;;;11.65;100.00;98114.69;130223;1257;114883;-71
2023/10/26 07:18:26;;;;;;;18.80;10.50;;;;;;;11.71;100.00;98112.10;130261;1255;114691;-72
2023/10/26 07:21:30;;;;;;;26.40;14.70;;;;;;;11.76;100.00;98115.70;130104;1256;114850;-71
2023/10/26 07:24:33;;;;;;;29.60;17.00;;;;;;;11.81;100.00;98117.80;130144;1259;114820;-69
2023/10/26 07:27:35;;;;;;;17.90;12.00;;;;;;;11.86;100.00;98122.17;130258;1256;115641;-71
2023/10/26 07:30:43;;;;;;;18.40;11.90;;;;;;;11.91;100.00;98124.25;130215;1259;114765;-68
2023/10/26 07:33:45;;;;;;;28.10;15.80;;;;;;;11.97;100.00;98124.19;129887;1259;129700;-69
2023/10/26 07:36:48;;;;;;;17.60;11.00;;;;;;;12.05;100.00;98128.09;130020;1259;114700;-69
2023/10/26 07:39:50;;;;;;;10.40;7.40;;;;;;;12.11;100.00;98128.52;130072;1259;114885;-70
2023/10/26 07:42:51;;;;;;;10.70;6.20;;;;;;;12.19;100.00;98127.98;129948;1262;115084;-70
2023/10/26 07:45:54;;;;;;;8.90;6.50;;;;;;;12.30;100.00;98130.02;130076;1259;114767;-71
2023/10/26 07:48:55;;;;;;;8.40;6.30;;;;;;;12.46;100.00;98125.25;130056;1278;115208;-70
2023/10/26 07:51:57;;;;;;;8.70;6.60;;;;;;;12.62;100.00;98130.69;129964;1259;114817;-69
2023/10/26 07:54:59;;;;;;;23.10;10.60;;;;;;;12.82;100.00;98123.84;130089;1258;128956;-69
2023/10/26 07:58:03;;;;;;;15.20;9.00;;;;;;;13.03;100.00;98125.42;130065;1259;114728;-68
2023/10/26 08:01:09;;;;;;;11.00;7.50;;;;;;;13.28;100.00;98123.27;130189;1259;115229;-68
2023/10/26 08:04:11;;;;;;;13.20;6.80;;;;;;;13.50;100.00;98125.52;129894;1262;115426;-68
2023/10/26 08:07:13;;;;;;;9.30;6.20;;;;;;;13.66;100.00;98124.87;129849;1257;114788;-69
2023/10/26 08:10:15;;;;;;;7.00;5.70;;;;;;;13.84;100.00;98128.36;130039;1256;114735;-69
2023/10/26 08:13:17;;;;;;;8.50;5.50;;;;;;;14.00;100.00;98129.83;129997;1259;128704;-69
2023/10/26 08:16:19;;;;;;;8.60;5.40;;;;;;;14.12;100.00;98132.37;130025;1278;114901;-69
2023/10/26 08:19:21;;;;;;;10.30;5.10;;;;;;;14.23;100.00;98130.25;130166;1273;114741;-69
2023/10/26 08:22:23;;;;;;;7.70;3.90;;;;;;;14.33;100.00;98124.90;129972;1256;114725;-69
2023/10/26 08:25:25;;;;;;;11.30;4.90;;;;;;;14.42;100.00;98127.46;129887;1262;114790;-69
2023/10/26 08:28:27;;;;;;;3.90;2.70;;;;;;;14.48;100.00;98132.27;130092;1259;114822;-70
2023/10/26 08:31:34;;;;;;;3.50;2.10;;;;;;;14.54;100.00;98126.23;130090;1259;114766;-73
2023/10/26 08:34:37;;;;;;;5.10;2.00;;;;;;;14.60;100.00;98128.52;129851;1278;128893;-70
2023/10/26 08:37:39;;;;;;;2.20;1.70;;;;;;;14.64;100.00;98132.77;130090;1256;114796;-70
2023/10/26 08:40:51;;;;;;;2.60;1.40;;;;;;;14.62;100.00;98133.50;130210;1259;114864;-72
2023/10/26 08:43:53;;;;;;;2.90;1.20;;;;;;;14.60;100.00;98136.54;129896;1264;114799;-71
2023/10/26 08:47:03;;;;;;;4.00;1.80;;;;;;;14.56;100.00;98142.58;130190;1260;114787;-69
2023/10/26 08:50:06;;;;;;;4.00;1.60;;;;;;;14.59;100.00;98146.40;130163;1256;115384;-69
2023/10/26 08:53:09;;;;;;;2.70;1.50;;;;;;;14.64;100.00;98148.91;130080;1260;114826;-70
2023/10/26 08:56:15;;;;;;;1.50;1.10;;;;;;;14.66;100.00;98156.31;130211;1259;114784;-71
2023/10/26 08:59:17;;;;;;;2.90;1.60;;;;;;;14.68;100.00;98157.55;130092;1262;114869;-71
2023/10/26 09:02:19;;;;;;;7.40;1.20;;;;;;;14.65;100.00;98163.20;130119;1259;114748;-69
2023/10/26 09:05:21;;;;;;;2.60;1.30;;;;;;;14.63;100.00;98164.23;130116;1259;114745;-70
2023/10/26 09:08:24;;;;;;;0.80;0.70;;;;;;;14.63;100.00;98164.49;130073;1256;114772;-69
2023/10/26 09:11:26;;;;;;;0.80;0.80;;;;;;;14.66;100.00;98166.04;130086;1256;114732;-70
2023/10/26 09:14:28;;;;;;;1.10;0.90;;;;;;;14.70;100.00;98168.15;129873;1256;114746;-72
2023/10/26 09:17:30;;;;;;;1.10;0.90;;;;;;;14.69;100.00;98170.77;130117;1278;114856;-69
2023/10/26 09:20:32;;;;;;;1.70;1.00;;;;;;;14.66;100.00;98168.33;129828;1262;114799;-72
2023/10/26 09:23:40;;;;;;;0.60;0.60;;;;;;;14.64;100.00;98173.02;130138;1256;115110;-68
2023/10/26 09:26:43;;;;;;;0.50;0.50;;;;;;;14.61;100.00;98169.90;130188;1259;114719;-69
2023/10/26 09:29:47;;;;;;;1.50;1.00;;;;;;;14.60;100.00;98172.55;129932;1257;114871;-68
2023/10/26 09:32:49;;;;;;;0.90;0.80;;;;;;;14.58;100.00;98172.73;130042;1259;114779;-70
2023/10/26 09:35:52;;;;;;;3.00;1.00;;;;;;;14.58;100.00;98174.91;129943;1278;116360;-69
2023/10/26 09:38:54;;;;;;;4.40;1.20;;;;;;;14.58;100.00;98173.95;130132;1257;114733;-70
2023/10/26 09:41:58;;;;;;;3.40;1.40;;;;;;;14.61;100.00;98174.42;130132;1259;114869;-69
2023/10/26 09:45:00;;;;;;;3.50;1.20;;;;;;;14.69;100.00;98175.82;130024;1259;114734;-68
2023/10/26 09:48:05;;;;;;;2.50;1.10;;;;;;;14.81;100.00;98173.20;130104;1259;115094;-68
2023/10/26 09:51:10;;;;;;;1.00;0.80;;;;;;;14.91;100.00;98172.33;130079;1268;115278;-72
2023/10/26 09:54:13;;;;;;;;;;;;;;;14.98;100.00;98172.29;129877;1259;114742;-75
2023/10/26 09:57:22;;;;;;;1.80;1.30;;;;;;;15.08;100.00;98172.90;130304;1256;115693;-70
2023/10/26 10:00:32;;;;;;;3.20;1.30;;;;;;;15.20;100.00;98172.10;130189;1278;114832;-68
2023/10/26 10:03:43;;;;;;;4.60;1.90;;;;;;;15.28;100.00;98167.63;130105;1266;128282;-70
2023/10/26 10:06:50;;;;;;;3.60;1.60;;;;;;;15.37;99.95;98165.86;130061;1259;115400;-72
2023/10/26 10:10:04;;;;;;;2.40;1.80;;;;;;;15.42;99.74;98169.06;130210;1259;115480;-71
2023/10/26 10:13:07;;;;;;;2.30;1.80;;;;;;;15.47;99.22;98169.63;129914;1256;115151;-72
2023/10/26 10:16:34;;;;;;;3.10;2.00;;;;;;;15.53;99.21;98167.73;130105;1259;114738;-69
2023/10/26 10:19:36;;;;;;;4.20;2.30;;;;;;;15.65;99.33;98166.17;129833;1259;128025;-72
2023/10/26 10:22:45;;;;;;;4.00;3.00;;;;;;;15.77;99.32;98163.52;130161;1259;114840;-71
2023/10/26 10:25:50;;;;;;;3.10;2.00;;;;;;;15.87;98.90;98163.55;130225;1259;114809;-70
2023/10/26 10:28:53;;;;;;;2.50;1.70;;;;;;;15.98;98.87;98159.54;130265;1264;114720;-70
2023/10/26 10:31:55;;;;;;;2.60;1.30;;;;;;;16.07;98.33;98159.40;130219;1278;114889;-72
2023/10/26 10:34:57;;;;;;;2.80;1.00;;;;;;;16.10;98.15;98156.95;130361;1259;115520;-70
2023/10/26 10:38:18;;;;;;;5.50;1.10;;;;;;;16.07;96.98;98155.85;130246;1263;114818;-70
2023/10/26 10:41:20;;;;;;;2.20;1.50;;;;;;;16.05;97.40;98153.66;130060;1259;114754;-71
2023/10/26 10:44:22;;;;;;;2.30;1.70;;;;;;;16.09;97.53;98154.54;130172;1257;114748;-71
2023/10/26 10:47:27;;;;;;;9.70;4.00;;;;;;;16.11;97.22;98151.27;130280;1259;115107;-70
2023/10/26 10:50:30;;;;;;;23.90;11.60;;;;;;;16.08;96.82;98151.44;130248;1259;114718;-71
2023/10/26 10:53:32;;;;;;;18.00;8.80;;;;;;;16.01;96.41;98146.77;130018;1259;114885;-70
2023/10/26 10:56:41;;;;;;;17.70;7.40;;;;;;;15.98;96.88;98147.96;130089;1259;114888;-70
2023/10/26 10:59:43;;;;;;;19.40;9.50;;;;;;;16.00;96.81;98144.35;129785;1261;127877;-70
2023/10/26 11:02:47;;;;;;;15.60;7.30;;;;;;;15.98;96.62;98139.39;130075;1257;114766;-70
2023/10/26 11:05:50;;;;;;;6.40;2.60;;;;;;;15.96;96.77;98137.02;130136;1256;114815;-70
2023/10/26 11:08:52;;;;;;;4.60;2.20;;;;;;;15.93;96.53;98131.58;130079;1259;114774;-69
2023/10/26 11:11:54;;;;;;;6.00;3.10;;;;;;;15.89;96.63;98129.11;130062;1265;115339;-70
2023/10/26 11:14:56;;;;;;;5.50;2.30;;;;;;;15.85;96.07;98136.60;130106;1257;114841;-70
2023/10/26 11:18:00;;;;;;;3.40;1.80;;;;;;;15.80;96.46;98136.70;129848;1262;114832;-71
2023/10/26 11:21:02;;;;;;;4.70;3.10;;;;;;;15.73;96.23;98141.44;130010;1259;114744;-70
2023/10/26 11:24:04;;;;;;;6.50;4.80;;;;;;;15.60;95.84;98143.89;130061;1257;114790;-70
2023/10/26 11:27:10;;;;;;;3.80;2.70;;;;;;;15.46;95.76;98150.36;130065;1261;114728;-70
2023/10/26 11:30:12;;;;;;;4.60;3.10;;;;;;;15.34;95.83;98148.85;130193;1259;114828;-70
2023/10/26 11:33:34;;;;;;;3.30;2.10;;;;;;;15.23;95.41;98149.69;129978;1275;114667;-71
2023/10/26 11:36:39;;;;;;;8.10;2.50;;;;;;;15.09;95.40;98158.08;129874;1257;127922;-71
2023/10/26 11:39:49;;;;;;;4.60;2.20;;;;;;;15.01;95.59;98156.93;129821;1262;114798;-72
2023/10/26 11:42:52;;;;;;;3.40;2.00;;;;;;;14.91;95.12;98158.27;130200;1259;114840;-72
2023/10/26 11:45:54;;;;;;;1.50;1.10;;;;;;;14.81;94.83;98163.70;130321;1259;114791;-71
2023/10/26 11:48:56;;;;;;;3.80;1.20;;;;;;;14.72;94.51;98163.85;129987;1259;114719;-71
2023/10/26 11:51:58;;;;;;;2.80;1.50;;;;;;;14.66;94.80;98163.14;130186;1259;114858;-71
2023/10/26 11:55:00;;;;;;;5.10;1.90;;;;;;;14.58;94.34;98160.64;129893;1262;127977;-71
2023/10/26 11:58:03;;;;;;;5.30;3.30;;;;;;;14.54;94.65;98167.86;130204;1278;114757;-71
2023/10/26 12:01:06;;;;;;;4.40;2.30;;;;;;;14.51;94.46;98166.71;129961;1259;114720;-71
2023/10/26 12:04:12;;;;;;;2.20;1.60;;;;;;;14.49;94.41;98173.63;130150;1264;114797;-71
2023/10/26 12:07:13;;;;;;;1.70;1.30;;;;;;;14.47;93.90;98173.64;130179;1259;115183;-71
2023/10/26 12:10:17;;;;;;;4.40;1.30;;;;;;;14.47;94.09;98175.09;130210;1256;114694;-71
2023/10/26 12:13:19;;;;;;;2.60;1.30;;;;;;;14.49;94.16;98170.44;130137;1263;114796;-71
2023/10/26 12:16:21;;;;;;;6.90;2.60;;;;;;;14.52;94.27;98169.31;130073;1266;114832;-71
2023/10/26 12:19:23;;;;;;;3.00;1.60;;;;;;;14.59;94.36;98170.96;130191;1270;115154;-70
2023/10/26 12:22:26;;;;;;;2.30;1.80;;;;;;;14.67;93.97;98176.20;130037;1274;114703;-70
2023/10/26 12:25:28;;;;;;;3.70;1.80;;;;;;;14.71;93.43;98178.67;129917;1262;114728;-69
2023/10/26 12:28:30;;;;;;;3.70;2.00;;;;;;;14.75;93.51;98183.59;130044;1260;115136;-70
2023/10/26 12:31:32;;;;;;;2.40;1.50;;;;;;;14.80;92.98;98187.61;130082;1270;114700;-70
2023/10/26 12:34:34;;;;;;;3.60;1.40;;;;;;;14.83;92.86;98193.13;129976;1259;129220;-71
2023/10/26 12:37:37;;;;;;;4.30;1.50;;;;;;;14.88;93.33;98192.73;129992;1270;114860;-71
2023/10/26 12:40:39;;;;;;;3.10;1.10;;;;;;;14.92;93.10;98191.23;130024;1263;114841;-71
2023/10/26 12:43:41;;;;;;;3.60;1.10;;;;;;;15.01;93.38;98188.08;130113;1259;114758;-71
2023/10/26 12:46:43;;;;;;;2.60;0.90;;;;;;;15.08;93.50;98188.80;130027;1259;114787;-71
2023/10/26 12:49:45;;;;;;;1.90;1.10;;;;;;;15.12;93.42;98185.32;130151;1259;115286;-71
2023/10/26 12:52:47;;;;;;;2.60;1.80;;;;;;;15.18;93.84;98190.46;130171;1259;114813;-71
2023/10/26 12:55:49;;;;;;;2.40;1.50;;;;;;;15.22;93.72;98187.01;130034;1270;128627;-70
2023/10/26 12:58:51;;;;;;;8.50;3.20;;;;;;;15.23;93.63;98191.20;129968;1260;114712;-71
2023/10/26 13:01:53;;;;;;;10.70;4.90;;;;;;;15.20;93.69;98190.58;130127;1259;114741;-71
2023/10/26 13:04:56;;;;;;;5.80;3.00;;;;;;;15.20;93.77;98194.96;130277;1259;115276;-71
2023/10/26 13:07:57;;;;;;;4.60;2.50;;;;;;;15.18;93.75;98190.89;130039;1259;114772;-71
2023/10/26 13:11:00;;;;;;;6.10;2.50;;;;;;;15.21;93.81;98194.12;130246;1257;114833;-72
2023/10/26 13:14:02;;;;;;;2.20;1.70;;;;;;;15.24;93.72;98196.36;129826;1270;114925;-72
2023/10/26 13:17:04;;;;;;;3.80;1.80;;;;;;;15.25;93.82;98196.77;129950;1259;114716;-71
2023/10/26 13:20:07;;;;;;;3.00;1.80;;;;;;;15.26;93.78;98194.99;130141;1278;114719;-71
2023/10/26 13:23:09;;;;;;;4.70;2.40;;;;;;;15.24;93.64;98201.48;130255;1270;115240;-70
2023/10/26 13:26:11;;;;;;;5.20;3.40;;;;;;;15.23;93.37;98200.74;130072;1259;115010;-72
2023/10/26 13:29:13;;;;;;;5.90;3.50;;;;;;;15.19;93.28;98207.05;130315;1259;115300;-71
2023/10/26 13:32:15;;;;;;;3.60;1.80;;;;;;;15.21;93.38;98207.40;129873;1265;114861;-71
2023/10/26 13:35:17;;;;;;;2.90;1.60;;;;;;;15.21;93.36;98210.23;130196;1278;114750;-71
2023/10/26 13:38:19;;;;;;;2.20;1.70;;;;;;;15.14;93.04;98213.46;130222;1260;114802;-71
2023/10/26 13:41:23;;;;;;;6.20;1.80;;;;;;;15.04;92.74;98222.41;130157;1269;128921;-71
2023/10/26 13:44:25;;;;;;;10.30;5.70;;;;;;;14.89;92.32;98230.02;130240;1260;115272;-71
2023/10/26 13:47:27;;;;;;;8.70;4.70;;;;;;;14.78;92.50;98234.59;130125;1278;114775;-70